Terminal Aerodrome Forecast
Issued by NWS Sioux Falls, SD

Home | Current Version | Previous Version | Text Only | Print | Product List | Glossary Off
Versions: 1 2 3 4 5 6 7 8 9 10 11 12 13 14 15 16

000
FTUS43 KFSD 212333
TAFSUX
TAF
KSUX 212333Z 2200/2224 32015G22KT P6SM FEW250
     FM220200 30009KT P6SM FEW250
     FM220700 21007KT P6SM SCT200 WS014/21040KT
     FM221000 22009KT P6SM SCT200
     FM221400 25007KT P6SM FEW250
     FM222200 32010KT P6SM -SHRA OVC040=

USA.gov is the U.S. government's official web portal to all federal, state and local government web resources and services.